sensor_id;sensor_type;location;lat;lon;timestamp;pressure;altitude;pressure_sealevel;temperature;humidity
53699;BME280;68408;53.952;27.612;2023-05-25T00:01:47;1013.7;;;18;48.7
53699;BME280;68408;53.952;27.612;2023-05-25T00:06:41;1013.7;;;18;49
53699;BME280;68408;53.952;27.612;2023-05-25T00:11:35;1013.7;;;17.9;49.2
53699;BME280;68408;53.952;27.612;2023-05-25T00:16:55;1013.7;;;17.8;49.4
53699;BME280;68408;53.952;27.612;2023-05-25T00:21:53;1013.7;;;17.7;49.2
53699;BME280;68408;53.952;27.612;2023-05-25T00:26:59;1013.7;;;17.7;48.6
53699;BME280;68408;53.952;27.612;2023-05-25T00:32:07;1013.7;;;17.7;48.7
53699;BME280;68408;53.952;27.612;2023-05-25T00:36:47;1013.7;;;17.7;49.1
53699;BME280;68408;53.952;27.612;2023-05-25T00:41:55;1013.7;;;17.6;49.3
53699;BME280;68408;53.952;27.612;2023-05-25T00:46:55;1013.7;;;17.5;50.5
53699;BME280;68408;53.952;27.612;2023-05-25T00:51:35;1013.8;;;17.4;50.5
53699;BME280;68408;53.952;27.612;2023-05-25T00:57:07;1013.8;;;17.3;50.8
53699;BME280;68408;53.952;27.612;2023-05-25T01:01:55;1013.7;;;17.1;51.2
53699;BME280;68408;53.952;27.612;2023-05-25T01:07:09;1013.6;;;16.9;51.6
53699;BME280;68408;53.952;27.612;2023-05-25T01:12:09;1013.6;;;16.9;52
53699;BME280;68408;53.952;27.612;2023-05-25T01:16:35;1013.6;;;16.8;52.3
53699;BME280;68408;53.952;27.612;2023-05-25T01:21:38;1013.5;;;16.7;52.7
53699;BME280;68408;53.952;27.612;2023-05-25T01:26:25;1013.5;;;16.6;53.2
53699;BME280;68408;53.952;27.612;2023-05-25T01:31:31;1013.5;;;16.5;53.7
53699;BME280;68408;53.952;27.612;2023-05-25T01:37:07;1013.5;;;16.4;53.8
53699;BME280;68408;53.952;27.612;2023-05-25T01:41:47;1013.5;;;16.4;54.3
53699;BME280;68408;53.952;27.612;2023-05-25T01:47:14;1013.5;;;16.3;54.5
53699;BME280;68408;53.952;27.612;2023-05-25T01:52:11;1013.6;;;16.2;55
53699;BME280;68408;53.952;27.612;2023-05-25T01:56:49;1013.7;;;16.2;55.3
53699;BME280;68408;53.952;27.612;2023-05-25T02:01:31;1013.7;;;16.2;55.2
53699;BME280;68408;53.952;27.612;2023-05-25T02:06:34;1013.7;;;16.2;55.1
53699;BME280;68408;53.952;27.612;2023-05-25T02:12:09;1013.7;;;16.3;55.1
53699;BME280;68408;53.952;27.612;2023-05-25T02:16:25;1013.6;;;16.5;55.1
53699;BME280;68408;53.952;27.612;2023-05-25T02:21:55;1013.7;;;16.8;54.8
53699;BME280;68408;53.952;27.612;2023-05-25T02:26:25;1013.8;;;16.8;54.9
53699;BME280;68408;53.952;27.612;2023-05-25T02:31:33;1013.8;;;17.1;54.6
53699;BME280;68408;53.952;27.612;2023-05-25T02:36:43;1013.8;;;18.1;52.7
53699;BME280;68408;53.952;27.612;2023-05-25T02:41:35;1013.7;;;19.3;50.1
53699;BME280;68408;53.952;27.612;2023-05-25T02:46:27;1013.6;;;20.5;46.9
53699;BME280;68408;53.952;27.612;2023-05-25T02:51:47;1013.6;;;21.6;44.4
53699;BME280;68408;53.952;27.612;2023-05-25T02:57:01;1013.5;;;22.7;41.9
53699;BME280;68408;53.952;27.612;2023-05-25T03:01:37;1013.5;;;23.7;40.1
53699;BME280;68408;53.952;27.612;2023-05-25T03:06:25;1013.5;;;24;39.4
53699;BME280;68408;53.952;27.612;2023-05-25T03:12:09;1013.6;;;22.9;40
53699;BME280;68408;53.952;27.612;2023-05-25T03:17:09;1013.7;;;21.9;40.6
53699;BME280;68408;53.952;27.612;2023-05-25T03:21:35;1013.8;;;21.2;42.1
53699;BME280;68408;53.952;27.612;2023-05-25T03:27:09;1013.8;;;20.8;42.8
53699;BME280;68408;53.952;27.612;2023-05-25T03:31:51;1013.8;;;22.1;40.4
53699;BME280;68408;53.952;27.612;2023-05-25T03:37:09;1013.7;;;24.7;36.7
53699;BME280;68408;53.952;27.612;2023-05-25T03:41:43;1013.8;;;25;36.3
53699;BME280;68408;53.952;27.612;2023-05-25T03:46:47;1013.9;;;23.8;37.8
53699;BME280;68408;53.952;27.612;2023-05-25T03:51:45;1013.9;;;23;38.8
53699;BME280;68408;53.952;27.612;2023-05-25T03:56:25;1014;;;22.4;39.5
53699;BME280;68408;53.952;27.612;2023-05-25T04:02:01;1014;;;22.2;40.3
53699;BME280;68408;53.952;27.612;2023-05-25T04:06:59;1014;;;22.4;40.1
53699;BME280;68408;53.952;27.612;2023-05-25T04:11:57;1014;;;22.5;39.6
53699;BME280;68408;53.952;27.612;2023-05-25T04:16:57;1014;;;22.6;39.7
53699;BME280;68408;53.952;27.612;2023-05-25T04:21:47;1014;;;22.4;39.8
53699;BME280;68408;53.952;27.612;2023-05-25T04:26:37;1014;;;22.3;39.8
53699;BME280;68408;53.952;27.612;2023-05-25T04:32:11;1014;;;22.4;39.8
53699;BME280;68408;53.952;27.612;2023-05-25T04:36:57;1014;;;22.5;39.9
53699;BME280;68408;53.952;27.612;2023-05-25T04:42:01;1014;;;22.8;39.1
53699;BME280;68408;53.952;27.612;2023-05-25T04:46:37;1014;;;22.9;39.1
53699;BME280;68408;53.952;27.612;2023-05-25T04:51:47;1014;;;22.9;39.7
53699;BME280;68408;53.952;27.612;2023-05-25T04:56:37;1014.1;;;23;39.8
53699;BME280;68408;53.952;27.612;2023-05-25T05:01:43;1014.1;;;23.2;39
53699;BME280;68408;53.952;27.612;2023-05-25T05:06:37;1014.1;;;23.4;38.1
53699;BME280;68408;53.952;27.612;2023-05-25T05:12:09;1014;;;23.5;37.8
53699;BME280;68408;53.952;27.612;2023-05-25T05:16:37;1014;;;23.5;38.1
53699;BME280;68408;53.952;27.612;2023-05-25T05:22:09;1014.1;;;23.4;38.4
53699;BME280;68408;53.952;27.612;2023-05-25T05:26:27;1014;;;23.5;38.4
53699;BME280;68408;53.952;27.612;2023-05-25T05:31:49;1014;;;23.6;38.1
53699;BME280;68408;53.952;27.612;2023-05-25T05:36:25;1014;;;23.8;37.6
53699;BME280;68408;53.952;27.612;2023-05-25T05:42:09;1014;;;24;36.9
53699;BME280;68408;53.952;27.612;2023-05-25T05:47:09;1014;;;24.1;36.2
53699;BME280;68408;53.952;27.612;2023-05-25T05:51:25;1014;;;24.1;36.3
53699;BME280;68408;53.952;27.612;2023-05-25T05:57:09;1014;;;24.1;36.3
53699;BME280;68408;53.952;27.612;2023-05-25T06:01:39;1014;;;24.1;36.3
53699;BME280;68408;53.952;27.612;2023-05-25T06:06:37;1014.1;;;24.4;35.2
53699;BME280;68408;53.952;27.612;2023-05-25T06:11:43;1014.1;;;24.7;34.7
53699;BME280;68408;53.952;27.612;2023-05-25T06:16:25;1014;;;24.7;33.8
53699;BME280;68408;53.952;27.612;2023-05-25T06:21:57;1014;;;24.9;33.2
53699;BME280;68408;53.952;27.612;2023-05-25T06:26:25;1013.9;;;25.1;32.7
53699;BME280;68408;53.952;27.612;2023-05-25T06:32:01;1013.9;;;25.3;32.2
53699;BME280;68408;53.952;27.612;2023-05-25T06:37:09;1013.9;;;25.4;31.5
53699;BME280;68408;53.952;27.612;2023-05-25T06:41:25;1013.9;;;25.5;31
53699;BME280;68408;53.952;27.612;2023-05-25T06:46:57;1013.9;;;25.7;29.9
53699;BME280;68408;53.952;27.612;2023-05-25T06:51:35;1013.9;;;25.8;29.7
53699;BME280;68408;53.952;27.612;2023-05-25T06:56:37;1013.9;;;25.8;29.7
53699;BME280;68408;53.952;27.612;2023-05-25T07:02:09;1013.9;;;25.8;29.5
53699;BME280;68408;53.952;27.612;2023-05-25T07:06:47;1014;;;25.6;28.9
53699;BME280;68408;53.952;27.612;2023-05-25T07:12:11;1013.9;;;25.6;29.4
53699;BME280;68408;53.952;27.612;2023-05-25T07:16:59;1014;;;25.7;28.8
53699;BME280;68408;53.952;27.612;2023-05-25T07:21:47;1013.9;;;25.8;28
53699;BME280;68408;53.952;27.612;2023-05-25T07:26:49;1013.9;;;25.9;27.7
53699;BME280;68408;53.952;27.612;2023-05-25T07:31:25;1013.9;;;25.9;27.9
53699;BME280;68408;53.952;27.612;2023-05-25T07:36:25;1013.9;;;25.8;27.8
53699;BME280;68408;53.952;27.612;2023-05-25T07:42:09;1013.9;;;25.8;28.1
53699;BME280;68408;53.952;27.612;2023-05-25T07:46:37;1013.9;;;26;27.7
53699;BME280;68408;53.952;27.612;2023-05-25T07:52:10;1013.8;;;26.2;27.6
53699;BME280;68408;53.952;27.612;2023-05-25T07:57:11;1013.8;;;26.2;27.5
53699;BME280;68408;53.952;27.612;2023-05-25T08:01:49;1013.7;;;26.2;27.3
53699;BME280;68408;53.952;27.612;2023-05-25T08:06:25;1013.7;;;26.4;26.8
53699;BME280;68408;53.952;27.612;2023-05-25T08:11:55;1013.7;;;26.5;26.4
53699;BME280;68408;53.952;27.612;2023-05-25T08:17:09;1013.6;;;26.8;26.2
53699;BME280;68408;53.952;27.612;2023-05-25T08:21:25;1013.6;;;27.1;26
53699;BME280;68408;53.952;27.612;2023-05-25T08:26:55;1013.7;;;27.5;25.4
53699;BME280;68408;53.952;27.612;2023-05-25T08:31:25;1013.6;;;27.5;25.3
53699;BME280;68408;53.952;27.612;2023-05-25T08:36:25;1013.6;;;27.6;25.3
53699;BME280;68408;53.952;27.612;2023-05-25T08:41:44;1013.6;;;27.8;25
53699;BME280;68408;53.952;27.612;2023-05-25T08:46:47;1013.6;;;28.1;24.1
53699;BME280;68408;53.952;27.612;2023-05-25T08:52:10;1013.5;;;28.4;23.4
53699;BME280;68408;53.952;27.612;2023-05-25T08:56:58;1013.5;;;28.6;22.2
53699;BME280;68408;53.952;27.612;2023-05-25T09:02:05;1013.6;;;28.4;23
53699;BME280;68408;53.952;27.612;2023-05-25T09:07:07;1013.6;;;27.7;23.8
53699;BME280;68408;53.952;27.612;2023-05-25T09:11:25;1013.7;;;27;24.4
53699;BME280;68408;53.952;27.612;2023-05-25T09:16:55;1013.6;;;26.9;24.7
53699;BME280;68408;53.952;27.612;2023-05-25T09:21:59;1013.6;;;26.8;25
53699;BME280;68408;53.952;27.612;2023-05-25T09:26:31;1013.7;;;26.6;25.2
53699;BME280;68408;53.952;27.612;2023-05-25T09:31:55;1013.7;;;26.3;25.5
53699;BME280;68408;53.952;27.612;2023-05-25T09:36:43;1013.7;;;26.2;25.8
53699;BME280;68408;53.952;27.612;2023-05-25T09:42:09;1013.7;;;26.1;26.1
53699;BME280;68408;53.952;27.612;2023-05-25T09:46:57;1013.7;;;26.1;26.1
53699;BME280;68408;53.952;27.612;2023-05-25T09:51:35;1013.6;;;26.6;25.9
53699;BME280;68408;53.952;27.612;2023-05-25T09:56:50;1013.5;;;27;25.6
53699;BME280;68408;53.952;27.612;2023-05-25T10:01:25;1013.5;;;27.9;24.5
53699;BME280;68408;53.952;27.612;2023-05-25T10:06:37;1013.5;;;28.2;22.8
53699;BME280;68408;53.952;27.612;2023-05-25T10:12:09;1013.4;;;28.6;22.4
53699;BME280;68408;53.952;27.612;2023-05-25T10:16:35;1013.3;;;28.9;22.5
53699;BME280;68408;53.952;27.612;2023-05-25T10:22:09;1013.4;;;28.8;22.5
53699;BME280;68408;53.952;27.612;2023-05-25T10:27:10;1013.4;;;28.8;22.5
53699;BME280;68408;53.952;27.612;2023-05-25T10:31:37;1013.4;;;28.7;22.1
53699;BME280;68408;53.952;27.612;2023-05-25T10:36:59;1013.3;;;28.7;22.4
53699;BME280;68408;53.952;27.612;2023-05-25T10:41:55;1013.3;;;28.7;21.7
53699;BME280;68408;53.952;27.612;2023-05-25T10:47:11;1013.2;;;28.8;22.1
53699;BME280;68408;53.952;27.612;2023-05-25T10:51:35;1013.2;;;29.2;21.6
53699;BME280;68408;53.952;27.612;2023-05-25T10:57:16;1013.1;;;29.1;21.2
53699;BME280;68408;53.952;27.612;2023-05-25T11:01:25;1013.1;;;29;21.3
53699;BME280;68408;53.952;27.612;2023-05-25T11:07:09;1013.1;;;28.9;20.9
53699;BME280;68408;53.952;27.612;2023-05-25T11:11:59;1013.1;;;29;19.9
53699;BME280;68408;53.952;27.612;2023-05-25T11:17:02;1013;;;29.5;19.2
53699;BME280;68408;53.952;27.612;2023-05-25T11:21:59;1013;;;29.9;19
53699;BME280;68408;53.952;27.612;2023-05-25T11:26:56;1013;;;29.9;19.3
53699;BME280;68408;53.952;27.612;2023-05-25T11:32:11;1012.9;;;30.1;19.4
53699;BME280;68408;53.952;27.612;2023-05-25T11:36:58;1012.9;;;30.3;19.4
53699;BME280;68408;53.952;27.612;2023-05-25T11:41:38;1012.9;;;30.1;19.1
53699;BME280;68408;53.952;27.612;2023-05-25T11:47:11;1012.9;;;29.9;19.3
53699;BME280;68408;53.952;27.612;2023-05-25T11:52:09;1012.9;;;29.6;20.1
53699;BME280;68408;53.952;27.612;2023-05-25T11:56:35;1012.9;;;29.3;20.1
53699;BME280;68408;53.952;27.612;2023-05-25T12:02:09;1012.9;;;29.1;19.5
53699;BME280;68408;53.952;27.612;2023-05-25T12:07:02;1012.9;;;29;20
53699;BME280;68408;53.952;27.612;2023-05-25T12:11:37;1012.8;;;29.2;20.3
53699;BME280;68408;53.952;27.612;2023-05-25T12:16:43;1012.8;;;29.6;20.2
53699;BME280;68408;53.952;27.612;2023-05-25T12:21:33;1012.8;;;29.9;20.1
53699;BME280;68408;53.952;27.612;2023-05-25T12:26:55;1012.8;;;30.1;19.5
53699;BME280;68408;53.952;27.612;2023-05-25T12:31:37;1012.8;;;29.9;19.6
53699;BME280;68408;53.952;27.612;2023-05-25T12:37:03;1012.8;;;29.7;19.9
53699;BME280;68408;53.952;27.612;2023-05-25T12:42:11;1012.8;;;29.3;20.3
53699;BME280;68408;53.952;27.612;2023-05-25T12:47:08;1012.7;;;29.1;20.3
53699;BME280;68408;53.952;27.612;2023-05-25T12:51:55;1012.7;;;29.4;20
53699;BME280;68408;53.952;27.612;2023-05-25T12:57:01;1012.6;;;29.8;19.6
53699;BME280;68408;53.952;27.612;2023-05-25T13:01:25;1012.6;;;29.9;19.5
53699;BME280;68408;53.952;27.612;2023-05-25T13:07:07;1012.6;;;29.4;19.8
53699;BME280;68408;53.952;27.612;2023-05-25T13:11:52;1012.5;;;29.1;20.1
53699;BME280;68408;53.952;27.612;2023-05-25T13:17:03;1012.5;;;28.8;20.4
53699;BME280;68408;53.952;27.612;2023-05-25T13:21:25;1012.5;;;28.7;20.6
53699;BME280;68408;53.952;27.612;2023-05-25T13:26:49;1012.5;;;28.6;20.7
53699;BME280;68408;53.952;27.612;2023-05-25T13:31:49;1012.4;;;28.5;20.6
53699;BME280;68408;53.952;27.612;2023-05-25T13:36:37;1012.4;;;28.3;20.9
53699;BME280;68408;53.952;27.612;2023-05-25T13:41:45;1012.3;;;28.1;20.9
53699;BME280;68408;53.952;27.612;2023-05-25T13:47:13;1012.3;;;28.1;20.8
53699;BME280;68408;53.952;27.612;2023-05-25T13:51:37;1012.3;;;28.2;20.9
53699;BME280;68408;53.952;27.612;2023-05-25T13:57:13;1012.3;;;28.3;20.9
53699;BME280;68408;53.952;27.612;2023-05-25T14:02:03;1012.3;;;28.4;20.6
53699;BME280;68408;53.952;27.612;2023-05-25T14:06:25;1012.3;;;28.3;20
53699;BME280;68408;53.952;27.612;2023-05-25T14:11:49;1012.3;;;27.9;20.6
53699;BME280;68408;53.952;27.612;2023-05-25T14:16:57;1012.3;;;27.8;20.8
53699;BME280;68408;53.952;27.612;2023-05-25T14:22:11;1012.3;;;27.9;21.2
53699;BME280;68408;53.952;27.612;2023-05-25T14:26:35;1012.2;;;27.9;21.1
53699;BME280;68408;53.952;27.612;2023-05-25T14:32:11;1012.1;;;28;20.5
53699;BME280;68408;53.952;27.612;2023-05-25T14:36:27;1012;;;28;20.3
53699;BME280;68408;53.952;27.612;2023-05-25T14:41:25;1012;;;28;20.1
53699;BME280;68408;53.952;27.612;2023-05-25T14:46:43;1012;;;28;20.3
53699;BME280;68408;53.952;27.612;2023-05-25T14:51:25;1012;;;28.2;20.3
53699;BME280;68408;53.952;27.612;2023-05-25T14:57:11;1012;;;28.2;19.5
53699;BME280;68408;53.952;27.612;2023-05-25T15:01:45;1011.9;;;28.1;19.6
53699;BME280;68408;53.952;27.612;2023-05-25T15:07:03;1011.9;;;28;20
53699;BME280;68408;53.952;27.612;2023-05-25T15:12:13;1011.9;;;27.9;20.4
53699;BME280;68408;53.952;27.612;2023-05-25T15:16:37;1011.9;;;27.9;20.6
53699;BME280;68408;53.952;27.612;2023-05-25T15:21:59;1011.9;;;27.6;21.1
53699;BME280;68408;53.952;27.612;2023-05-25T15:26:49;1011.9;;;27.4;21.6
53699;BME280;68408;53.952;27.612;2023-05-25T15:31:37;1011.9;;;27.6;21.8
53699;BME280;68408;53.952;27.612;2023-05-25T15:37:11;1011.9;;;27.6;22
53699;BME280;68408;53.952;27.612;2023-05-25T15:41:57;1011.9;;;27.5;22.1
53699;BME280;68408;53.952;27.612;2023-05-25T15:47:03;1011.9;;;27.5;22.5
53699;BME280;68408;53.952;27.612;2023-05-25T15:51:25;1011.9;;;27.4;22.7
53699;BME280;68408;53.952;27.612;2023-05-25T15:56:49;1011.9;;;27.4;22.7
53699;BME280;68408;53.952;27.612;2023-05-25T16:01:49;1011.9;;;27.1;22.8
53699;BME280;68408;53.952;27.612;2023-05-25T16:06:31;1011.9;;;26.8;23.3
53699;BME280;68408;53.952;27.612;2023-05-25T16:11:43;1011.9;;;26.5;23.6
53699;BME280;68408;53.952;27.612;2023-05-25T16:17:11;1012;;;26.4;23.9
53699;BME280;68408;53.952;27.612;2023-05-25T16:21:37;1012;;;26.2;24.6
53699;BME280;68408;53.952;27.612;2023-05-25T16:27:11;1012;;;26;25.2
53699;BME280;68408;53.952;27.612;2023-05-25T16:32:11;1012;;;26;25.5
53699;BME280;68408;53.952;27.612;2023-05-25T16:36:37;1012;;;26.1;25.6
53699;BME280;68408;53.952;27.612;2023-05-25T16:41:51;1012;;;26;25.9
53699;BME280;68408;53.952;27.612;2023-05-25T16:46:57;1012;;;25.9;26.1
53699;BME280;68408;53.952;27.612;2023-05-25T16:52:11;1012;;;25.8;26.3
53699;BME280;68408;53.952;27.612;2023-05-25T16:56:25;1012.1;;;25.6;26.7
53699;BME280;68408;53.952;27.612;2023-05-25T17:02:11;1012.1;;;25.4;26.9
53699;BME280;68408;53.952;27.612;2023-05-25T17:06:49;1012.1;;;25.2;27.3
53699;BME280;68408;53.952;27.612;2023-05-25T17:12:04;1012.2;;;25.1;28
53699;BME280;68408;53.952;27.612;2023-05-25T17:16:57;1012.2;;;25.1;28
53699;BME280;68408;53.952;27.612;2023-05-25T17:21:49;1012.2;;;25.1;28
53699;BME280;68408;53.952;27.612;2023-05-25T17:27:11;1012.3;;;24.5;29.4
53699;BME280;68408;53.952;27.612;2023-05-25T17:31:57;1012.3;;;24.4;29.8
53699;BME280;68408;53.952;27.612;2023-05-25T17:37:04;1012.4;;;24.3;30.2
53699;BME280;68408;53.952;27.612;2023-05-25T17:42:11;1012.4;;;24.3;30.4
53699;BME280;68408;53.952;27.612;2023-05-25T17:46:38;1012.4;;;24.3;30.4
53699;BME280;68408;53.952;27.612;2023-05-25T17:51:57;1012.4;;;24.3;30.4
53699;BME280;68408;53.952;27.612;2023-05-25T17:56:57;1012.5;;;24;31.2
53699;BME280;68408;53.952;27.612;2023-05-25T18:01:25;1012.5;;;24;31.2
53699;BME280;68408;53.952;27.612;2023-05-25T18:07:09;1012.5;;;23.9;31.4
53699;BME280;68408;53.952;27.612;2023-05-25T18:11:57;1012.7;;;23.6;32.4
53699;BME280;68408;53.952;27.612;2023-05-25T18:17:09;1012.7;;;23.5;32.4
53699;BME280;68408;53.952;27.612;2023-05-25T18:21:57;1012.7;;;23.2;33.2
53699;BME280;68408;53.952;27.612;2023-05-25T18:27:04;1012.7;;;23;33.5
53699;BME280;68408;53.952;27.612;2023-05-25T18:31:49;1012.8;;;22.8;33.8
53699;BME280;68408;53.952;27.612;2023-05-25T18:36:25;1012.8;;;22.6;34.6
53699;BME280;68408;53.952;27.612;2023-05-25T18:41:25;1012.8;;;22.4;35
53699;BME280;68408;53.952;27.612;2023-05-25T18:47:11;1012.8;;;22.3;35.5
53699;BME280;68408;53.952;27.612;2023-05-25T18:51:25;1012.9;;;22.2;36
53699;BME280;68408;53.952;27.612;2023-05-25T18:57:11;1012.9;;;22;36.2
53699;BME280;68408;53.952;27.612;2023-05-25T19:02:11;1012.9;;;21.9;36.4
53699;BME280;68408;53.952;27.612;2023-05-25T19:06:37;1013;;;21.8;36.3
53699;BME280;68408;53.952;27.612;2023-05-25T19:11:26;1013;;;21.8;36.7
53699;BME280;68408;53.952;27.612;2023-05-25T19:16:46;1013;;;21.7;36.8
53699;BME280;68408;53.952;27.612;2023-05-25T19:22:09;1013;;;21.6;37.1
53699;BME280;68408;53.952;27.612;2023-05-25T19:26:25;1013.1;;;21.5;37.5
53699;BME280;68408;53.952;27.612;2023-05-25T19:31:57;1013.1;;;21.5;37.6
53699;BME280;68408;53.952;27.612;2023-05-25T19:36:49;1013.1;;;21.4;38
53699;BME280;68408;53.952;27.612;2023-05-25T19:41:25;1013.1;;;21.3;38.2
53699;BME280;68408;53.952;27.612;2023-05-25T19:46:43;1013.1;;;21.2;38.4
53699;BME280;68408;53.952;27.612;2023-05-25T19:51:25;1013.1;;;21.1;38.8
53699;BME280;68408;53.952;27.612;2023-05-25T19:56:57;1013.1;;;21;39
53699;BME280;68408;53.952;27.612;2023-05-25T20:01:57;1013.1;;;21;39.1
53699;BME280;68408;53.952;27.612;2023-05-25T20:07:04;1013.2;;;20.9;39.5
53699;BME280;68408;53.952;27.612;2023-05-25T20:12:10;1013.2;;;20.8;39.6
53699;BME280;68408;53.952;27.612;2023-05-25T20:16:25;1013.2;;;20.7;39.9
53699;BME280;68408;53.952;27.612;2023-05-25T20:22:11;1013.2;;;20.6;40.5
53699;BME280;68408;53.952;27.612;2023-05-25T20:26:57;1013.2;;;20.4;40.8
53699;BME280;68408;53.952;27.612;2023-05-25T20:31:26;1013.3;;;20.3;41.6
53699;BME280;68408;53.952;27.612;2023-05-25T20:37:13;1013.3;;;20.2;42
53699;BME280;68408;53.952;27.612;2023-05-25T20:42:00;1013.2;;;20.1;42.2
53699;BME280;68408;53.952;27.612;2023-05-25T20:47:13;1013.2;;;20;42.2
53699;BME280;68408;53.952;27.612;2023-05-25T20:51:51;1013.3;;;20;42.8
53699;BME280;68408;53.952;27.612;2023-05-25T20:56:25;1013.3;;;19.9;43
53699;BME280;68408;53.952;27.612;2023-05-25T21:01:50;1013.3;;;19.9;43.1
53699;BME280;68408;53.952;27.612;2023-05-25T21:06:25;1013.3;;;19.9;42.9
53699;BME280;68408;53.952;27.612;2023-05-25T21:11:31;1013.2;;;19.9;42.9
53699;BME280;68408;53.952;27.612;2023-05-25T21:17:12;1013.2;;;19.9;42.8
53699;BME280;68408;53.952;27.612;2023-05-25T21:21:37;1013.2;;;20;42.7
53699;BME280;68408;53.952;27.612;2023-05-25T21:27:12;1013.2;;;20;42.6
53699;BME280;68408;53.952;27.612;2023-05-25T21:32:12;1013.1;;;20.1;42.6
53699;BME280;68408;53.952;27.612;2023-05-25T21:36:49;1013;;;20.1;42.6
53699;BME280;68408;53.952;27.612;2023-05-25T21:41:26;1013.1;;;20.1;42.7
53699;BME280;68408;53.952;27.612;2023-05-25T21:46:56;1013.2;;;20;42.8
53699;BME280;68408;53.952;27.612;2023-05-25T21:52:10;1013.2;;;19.9;43.1
53699;BME280;68408;53.952;27.612;2023-05-25T21:56:26;1013.1;;;19.8;43.4
53699;BME280;68408;53.952;27.612;2023-05-25T22:01:58;1013.1;;;19.6;43.8
53699;BME280;68408;53.952;27.612;2023-05-25T22:06:26;1013.1;;;19.5;44
53699;BME280;68408;53.952;27.612;2023-05-25T22:11:36;1013.2;;;19.4;44.8
53699;BME280;68408;53.952;27.612;2023-05-25T22:16:36;1013.1;;;19.2;45.3
53699;BME280;68408;53.952;27.612;2023-05-25T22:21:38;1013.1;;;19.1;45.4
53699;BME280;68408;53.952;27.612;2023-05-25T22:26:56;1013.1;;;19;45.9
53699;BME280;68408;53.952;27.612;2023-05-25T22:31:58;1013.1;;;18.9;46.2
53699;BME280;68408;53.952;27.612;2023-05-25T22:37:02;1013.1;;;18.8;46.4
53699;BME280;68408;53.952;27.612;2023-05-25T22:42:12;1013.1;;;18.7;46.3
53699;BME280;68408;53.952;27.612;2023-05-25T22:46:36;1013.1;;;18.7;46.7
53699;BME280;68408;53.952;27.612;2023-05-25T22:51:58;1013.2;;;18.6;47.3
53699;BME280;68408;53.952;27.612;2023-05-25T22:56:58;1013.2;;;18.5;47.5
53699;BME280;68408;53.952;27.612;2023-05-25T23:01:26;1013.2;;;18.4;47.8
53699;BME280;68408;53.952;27.612;2023-05-25T23:07:10;1013.3;;;18.3;48
53699;BME280;68408;53.952;27.612;2023-05-25T23:11:56;1013.3;;;18.2;48.4
53699;BME280;68408;53.952;27.612;2023-05-25T23:17:10;1013.3;;;18.1;49.6
53699;BME280;68408;53.952;27.612;2023-05-25T23:21:56;1013.3;;;18;49.6
53699;BME280;68408;53.952;27.612;2023-05-25T23:26:26;1013.3;;;17.9;50.2
53699;BME280;68408;53.952;27.612;2023-05-25T23:31:36;1013.3;;;17.9;50.4
53699;BME280;68408;53.952;27.612;2023-05-25T23:36:26;1013.3;;;17.8;50.6
53699;BME280;68408;53.952;27.612;2023-05-25T23:41:36;1013.3;;;17.7;51.1
53699;BME280;68408;53.952;27.612;2023-05-25T23:47:08;1013.4;;;17.7;51.7
53699;BME280;68408;53.952;27.612;2023-05-25T23:51:26;1013.4;;;17.6;52
53699;BME280;68408;53.952;27.612;2023-05-25T23:57:10;1013.3;;;17.6;51.9
